Acton, Montana
Current Conditions -  °F | °C
As of 6:02 AM on Wednesday 26 Nov 2014 (Local Time) from KBIL Reporting Station
Light Snow Light Snow  
Wind Chill: -6°   Ceiling: 200
Heat Index: -2°   Visibility: 2mi
Dew Point: -3°   Wind: 6mph
Humidity: 96%   Direction: 220°SW
Pressure: 30.17"   Gusts: NA
Location:  45.93°N, 108.69°W
Report Text: KBIL 261302Z 22005KT 2SM -SN BR BKN002 OVC009 M02/M03 A3017 RMK AO2 P0001 T10221028 $
Loading
Personal Weather Stations






























Interactive Weather Map New forecast layout! Learn more

10-Day Weather Forecast

Advertisements
Track Severe Weather on mobile